Portada
METAR-TAF:

METAR-TAF

Aeroports :

Resistencia, Argentina

latitud: 27-27S, longitud: 059-03W, altitud: 53 m

Observació

L'informe es va fer fa 49 minuts, a les 03:00 UTC
Vent 2 kt del Sud/Sud-Oest
Temperatura 18°C
Humitat 94%
Pressió 1009 hPa
Visibilitat 10 km o més
Cel cobert a una alçada de 2800 ft

METAR: SARE 180300Z 20002KT 9999 OVC028 18/17 Q1009

Hora: 00:49 (03:49 UTC)

Pronòstic

L'informe es va fer fa 4 hores i 49 minuts, a les 23:00 UTC
Pronòstic vàlid del 18 a les 00 UTC al 18 a les 24 UTC
Vent 5 kt del Sud-Est
Visibilitat 10 km o més
Cel ennuvolat a una alçada de 1000 ft
Evolucionant progressivament
l' 18 a les 02 UTC al 18 a les 04 UTC
Visibilitat: 1500 m
Cel cobert a una alçada de 300 ft
plugim, boirina
Probabilitat 40%
l' 18 a les 14 UTC al 18 a les 21 UTC
Visibilitat 10 km o més
Cel ennuvolat a una alçada de 2000 ft

TAF: SARE 172300Z 1800/1824 14005KT 9999 BKN010 TX24/1818Z TN17/1810Z BECMG 1802/1804 1500 DZ BR OVC003 PROB40 1814/1821 9999 BKN020

Observacions i pronòstics meteorològics de més de 4000 aeroports (METAR i TAF).

Les estacions disponibles són els punts grocs i vermells al mapa.

Posi el ratolí al punt desitjat per veure el nom de l'estació.

Feu clic per veure les observacions i els pronòstics meteorològics.

Per canviar el mapa: feu clic els botons verds amb una creu de color negre per apropar; al botó verd amb un guió per allunyar la imatge; o en les fletxes verdes per a mapes adjacents.


METAR-TAF: